McCausland, Iowa
Current Conditions -  °F | °C
As of 5:35 PM on Saturday 25 Oct 2014 (Local Time) from KCWI Reporting Station
Clear Clear  
Wind Chill: 66°   Ceiling: Unl
Heat Index: 66°   Visibility: 10mi
Dew Point: 34°   Wind: 9mph
Humidity: 30%   Direction: 300°WNW
Pressure: 30.02"   Gusts: NA
Location:  41.75°N, 90.44°W
Report Text: KCWI 252235Z 30008KT 10SM CLR 19/01 A3002 RMK AO1
Loading
Personal Weather Stations






























Interactive Weather Map
Tropical Storm Tracking
New forecast layout! Learn more

10-Day Weather Forecast

Advertisements
Track Severe Weather on mobile